sensor_id;sensor_type;location;lat;lon;timestamp;P1;durP1;ratioP1;P2;durP2;ratioP2
9240;SDS011;53485;49.326;9.738;2022-12-07T00:00:22;15.53;;;11.30;;
9240;SDS011;53485;49.326;9.738;2022-12-07T00:02:50;17.07;;;11.20;;
9240;SDS011;53485;49.326;9.738;2022-12-07T00:05:17;15.60;;;11.17;;
9240;SDS011;53485;49.326;9.738;2022-12-07T00:07:44;18.53;;;10.77;;
9240;SDS011;53485;49.326;9.738;2022-12-07T00:10:12;16.20;;;11.17;;
9240;SDS011;53485;49.326;9.738;2022-12-07T00:12:39;16.63;;;11.27;;
9240;SDS011;53485;49.326;9.738;2022-12-07T00:15:07;16.80;;;11.33;;
9240;SDS011;53485;49.326;9.738;2022-12-07T00:17:34;16.93;;;11.23;;
9240;SDS011;53485;49.326;9.738;2022-12-07T00:20:02;16.90;;;11.53;;
9240;SDS011;53485;49.326;9.738;2022-12-07T00:22:30;17.43;;;10.47;;
9240;SDS011;53485;49.326;9.738;2022-12-07T00:24:57;16.00;;;10.17;;
9240;SDS011;53485;49.326;9.738;2022-12-07T00:27:25;17.83;;;12.40;;
9240;SDS011;53485;49.326;9.738;2022-12-07T00:29:51;16.47;;;10.70;;
9240;SDS011;53485;49.326;9.738;2022-12-07T00:32:19;16.97;;;11.60;;
9240;SDS011;53485;49.326;9.738;2022-12-07T00:34:46;18.53;;;11.33;;
9240;SDS011;53485;49.326;9.738;2022-12-07T00:37:14;19.00;;;12.10;;
9240;SDS011;53485;49.326;9.738;2022-12-07T00:39:41;15.97;;;10.37;;
9240;SDS011;53485;49.326;9.738;2022-12-07T00:42:08;16.80;;;10.87;;
9240;SDS011;53485;49.326;9.738;2022-12-07T00:44:36;20.17;;;10.93;;
9240;SDS011;53485;49.326;9.738;2022-12-07T00:47:03;17.83;;;9.93;;
9240;SDS011;53485;49.326;9.738;2022-12-07T00:49:31;15.73;;;10.37;;
9240;SDS011;53485;49.326;9.738;2022-12-07T00:51:58;16.97;;;10.40;;
9240;SDS011;53485;49.326;9.738;2022-12-07T00:54:25;19.63;;;11.63;;
9240;SDS011;53485;49.326;9.738;2022-12-07T00:56:53;17.70;;;10.67;;
9240;SDS011;53485;49.326;9.738;2022-12-07T00:59:20;18.50;;;11.03;;
9240;SDS011;53485;49.326;9.738;2022-12-07T01:01:48;17.87;;;10.93;;
9240;SDS011;53485;49.326;9.738;2022-12-07T01:04:15;16.87;;;10.80;;
9240;SDS011;53485;49.326;9.738;2022-12-07T01:06:43;20.17;;;11.23;;
9240;SDS011;53485;49.326;9.738;2022-12-07T01:09:10;20.13;;;11.60;;
9240;SDS011;53485;49.326;9.738;2022-12-07T01:11:37;21.03;;;12.50;;
9240;SDS011;53485;49.326;9.738;2022-12-07T01:14:05;19.97;;;12.30;;
9240;SDS011;53485;49.326;9.738;2022-12-07T01:16:32;20.27;;;11.67;;
9240;SDS011;53485;49.326;9.738;2022-12-07T01:18:59;19.33;;;11.83;;
9240;SDS011;53485;49.326;9.738;2022-12-07T01:21:26;25.73;;;12.97;;
9240;SDS011;53485;49.326;9.738;2022-12-07T01:23:52;23.07;;;13.20;;
9240;SDS011;53485;49.326;9.738;2022-12-07T01:26:20;24.53;;;14.17;;
9240;SDS011;53485;49.326;9.738;2022-12-07T01:28:46;23.00;;;13.37;;
9240;SDS011;53485;49.326;9.738;2022-12-07T01:31:14;22.43;;;13.20;;
9240;SDS011;53485;49.326;9.738;2022-12-07T01:33:40;25.53;;;12.93;;
9240;SDS011;53485;49.326;9.738;2022-12-07T01:36:07;22.27;;;12.70;;
9240;SDS011;53485;49.326;9.738;2022-12-07T01:38:34;22.97;;;12.47;;
9240;SDS011;53485;49.326;9.738;2022-12-07T01:41:01;25.90;;;13.37;;
9240;SDS011;53485;49.326;9.738;2022-12-07T01:43:30;23.33;;;12.60;;
9240;SDS011;53485;49.326;9.738;2022-12-07T01:45:55;24.07;;;13.03;;
9240;SDS011;53485;49.326;9.738;2022-12-07T01:48:26;23.00;;;12.73;;
9240;SDS011;53485;49.326;9.738;2022-12-07T01:50:52;23.63;;;13.03;;
9240;SDS011;53485;49.326;9.738;2022-12-07T01:53:19;23.27;;;12.87;;
9240;SDS011;53485;49.326;9.738;2022-12-07T01:55:47;24.87;;;14.03;;
9240;SDS011;53485;49.326;9.738;2022-12-07T01:58:12;26.83;;;13.10;;
9240;SDS011;53485;49.326;9.738;2022-12-07T02:00:40;27.83;;;14.93;;
9240;SDS011;53485;49.326;9.738;2022-12-07T02:03:09;25.47;;;14.10;;
9240;SDS011;53485;49.326;9.738;2022-12-07T02:05:35;28.20;;;14.57;;
9240;SDS011;53485;49.326;9.738;2022-12-07T02:08:02;33.73;;;14.90;;
9240;SDS011;53485;49.326;9.738;2022-12-07T02:10:30;31.83;;;15.30;;
9240;SDS011;53485;49.326;9.738;2022-12-07T02:12:57;29.00;;;15.77;;
9240;SDS011;53485;49.326;9.738;2022-12-07T02:15:51;29.47;;;15.47;;
9240;SDS011;53485;49.326;9.738;2022-12-07T02:18:23;31.07;;;16.13;;
9240;SDS011;53485;49.326;9.738;2022-12-07T02:23:41;28.03;;;15.60;;
9240;SDS011;53485;49.326;9.738;2022-12-07T02:26:26;33.17;;;15.97;;
9240;SDS011;53485;49.326;9.738;2022-12-07T02:29:08;29.43;;;16.20;;
9240;SDS011;53485;49.326;9.738;2022-12-07T02:31:45;31.13;;;15.67;;
9240;SDS011;53485;49.326;9.738;2022-12-07T02:34:46;28.50;;;16.23;;
9240;SDS011;53485;49.326;9.738;2022-12-07T02:36:57;34.27;;;17.03;;
9240;SDS011;53485;49.326;9.738;2022-12-07T02:39:30;32.10;;;16.87;;
9240;SDS011;53485;49.326;9.738;2022-12-07T02:41:55;32.10;;;16.33;;
9240;SDS011;53485;49.326;9.738;2022-12-07T02:44:23;31.83;;;16.30;;
9240;SDS011;53485;49.326;9.738;2022-12-07T02:46:53;29.27;;;16.03;;
9240;SDS011;53485;49.326;9.738;2022-12-07T02:49:21;32.63;;;16.83;;
9240;SDS011;53485;49.326;9.738;2022-12-07T02:51:46;33.13;;;18.30;;
9240;SDS011;53485;49.326;9.738;2022-12-07T02:54:15;33.33;;;18.60;;
9240;SDS011;53485;49.326;9.738;2022-12-07T02:57:17;32.10;;;16.90;;
9240;SDS011;53485;49.326;9.738;2022-12-07T02:59:30;33.07;;;16.90;;
9240;SDS011;53485;49.326;9.738;2022-12-07T03:02:15;36.37;;;17.43;;
9240;SDS011;53485;49.326;9.738;2022-12-07T03:04:52;32.80;;;17.00;;
9240;SDS011;53485;49.326;9.738;2022-12-07T03:10:03;37.97;;;18.93;;
9240;SDS011;53485;49.326;9.738;2022-12-07T03:12:32;37.23;;;18.40;;
9240;SDS011;53485;49.326;9.738;2022-12-07T03:15:14;37.07;;;17.73;;
9240;SDS011;53485;49.326;9.738;2022-12-07T03:17:42;38.00;;;18.50;;
9240;SDS011;53485;49.326;9.738;2022-12-07T03:20:09;36.80;;;18.20;;
9240;SDS011;53485;49.326;9.738;2022-12-07T03:22:35;38.47;;;18.90;;
9240;SDS011;53485;49.326;9.738;2022-12-07T03:25:04;37.93;;;19.80;;
9240;SDS011;53485;49.326;9.738;2022-12-07T03:27:41;40.87;;;18.60;;
9240;SDS011;53485;49.326;9.738;2022-12-07T03:30:15;42.50;;;19.97;;
9240;SDS011;53485;49.326;9.738;2022-12-07T03:32:43;41.60;;;19.77;;
9240;SDS011;53485;49.326;9.738;2022-12-07T03:35:14;38.87;;;18.67;;
9240;SDS011;53485;49.326;9.738;2022-12-07T03:37:45;45.93;;;19.63;;
9240;SDS011;53485;49.326;9.738;2022-12-07T03:40:22;40.27;;;19.63;;
9240;SDS011;53485;49.326;9.738;2022-12-07T03:42:50;41.37;;;19.37;;
9240;SDS011;53485;49.326;9.738;2022-12-07T03:45:17;38.87;;;19.40;;
9240;SDS011;53485;49.326;9.738;2022-12-07T03:47:46;40.33;;;18.57;;
9240;SDS011;53485;49.326;9.738;2022-12-07T03:52:58;34.87;;;18.03;;
9240;SDS011;53485;49.326;9.738;2022-12-07T03:55:27;39.07;;;18.10;;
9240;SDS011;53485;49.326;9.738;2022-12-07T03:57:54;43.60;;;19.23;;
9240;SDS011;53485;49.326;9.738;2022-12-07T04:00:19;38.53;;;18.27;;
9240;SDS011;53485;49.326;9.738;2022-12-07T04:02:47;39.87;;;19.13;;
9240;SDS011;53485;49.326;9.738;2022-12-07T04:05:14;37.47;;;19.20;;
9240;SDS011;53485;49.326;9.738;2022-12-07T04:07:42;37.23;;;18.67;;
9240;SDS011;53485;49.326;9.738;2022-12-07T04:10:09;40.00;;;19.17;;
9240;SDS011;53485;49.326;9.738;2022-12-07T04:12:36;38.17;;;18.30;;
9240;SDS011;53485;49.326;9.738;2022-12-07T04:15:04;36.87;;;18.33;;
9240;SDS011;53485;49.326;9.738;2022-12-07T04:17:32;38.63;;;19.17;;
9240;SDS011;53485;49.326;9.738;2022-12-07T04:19:59;38.40;;;18.90;;
9240;SDS011;53485;49.326;9.738;2022-12-07T04:22:27;38.03;;;19.43;;
9240;SDS011;53485;49.326;9.738;2022-12-07T04:24:54;39.73;;;20.33;;
9240;SDS011;53485;49.326;9.738;2022-12-07T04:27:21;35.97;;;18.07;;
9240;SDS011;53485;49.326;9.738;2022-12-07T04:29:49;38.03;;;19.53;;
9240;SDS011;53485;49.326;9.738;2022-12-07T04:32:16;36.27;;;18.87;;
9240;SDS011;53485;49.326;9.738;2022-12-07T04:34:43;42.57;;;20.63;;
9240;SDS011;53485;49.326;9.738;2022-12-07T04:37:11;36.53;;;19.03;;
9240;SDS011;53485;49.326;9.738;2022-12-07T04:39:38;40.33;;;19.23;;
9240;SDS011;53485;49.326;9.738;2022-12-07T04:42:05;41.67;;;19.87;;
9240;SDS011;53485;49.326;9.738;2022-12-07T04:44:33;38.43;;;19.47;;
9240;SDS011;53485;49.326;9.738;2022-12-07T04:47:00;37.03;;;18.90;;
9240;SDS011;53485;49.326;9.738;2022-12-07T04:49:28;42.17;;;19.63;;
9240;SDS011;53485;49.326;9.738;2022-12-07T04:51:55;41.90;;;20.47;;
9240;SDS011;53485;49.326;9.738;2022-12-07T04:54:23;40.63;;;20.50;;
9240;SDS011;53485;49.326;9.738;2022-12-07T04:56:50;40.57;;;19.33;;
9240;SDS011;53485;49.326;9.738;2022-12-07T04:59:18;40.07;;;19.60;;
9240;SDS011;53485;49.326;9.738;2022-12-07T05:01:45;43.03;;;19.10;;
9240;SDS011;53485;49.326;9.738;2022-12-07T05:04:12;37.50;;;18.93;;
9240;SDS011;53485;49.326;9.738;2022-12-07T05:06:39;42.30;;;20.50;;
9240;SDS011;53485;49.326;9.738;2022-12-07T05:09:07;42.43;;;19.63;;
9240;SDS011;53485;49.326;9.738;2022-12-07T05:11:34;42.43;;;19.73;;
9240;SDS011;53485;49.326;9.738;2022-12-07T05:14:05;39.90;;;18.57;;
9240;SDS011;53485;49.326;9.738;2022-12-07T05:16:32;36.43;;;19.63;;
9240;SDS011;53485;49.326;9.738;2022-12-07T05:19:00;37.20;;;18.60;;
9240;SDS011;53485;49.326;9.738;2022-12-07T05:21:27;38.07;;;20.83;;
9240;SDS011;53485;49.326;9.738;2022-12-07T05:23:55;34.63;;;18.23;;
9240;SDS011;53485;49.326;9.738;2022-12-07T05:26:22;35.83;;;17.37;;
9240;SDS011;53485;49.326;9.738;2022-12-07T05:28:50;38.60;;;18.80;;
9240;SDS011;53485;49.326;9.738;2022-12-07T05:31:17;35.67;;;18.63;;
9240;SDS011;53485;49.326;9.738;2022-12-07T05:33:44;39.27;;;19.10;;
9240;SDS011;53485;49.326;9.738;2022-12-07T05:36:12;36.70;;;18.73;;
9240;SDS011;53485;49.326;9.738;2022-12-07T05:38:39;37.37;;;18.20;;
9240;SDS011;53485;49.326;9.738;2022-12-07T05:41:06;36.43;;;18.13;;
9240;SDS011;53485;49.326;9.738;2022-12-07T05:43:33;38.20;;;18.27;;
9240;SDS011;53485;49.326;9.738;2022-12-07T05:46:01;34.13;;;16.97;;
9240;SDS011;53485;49.326;9.738;2022-12-07T05:48:28;33.27;;;17.67;;
9240;SDS011;53485;49.326;9.738;2022-12-07T05:50:55;34.40;;;17.27;;
9240;SDS011;53485;49.326;9.738;2022-12-07T05:53:23;31.63;;;16.20;;
9240;SDS011;53485;49.326;9.738;2022-12-07T05:55:51;29.70;;;16.70;;
9240;SDS011;53485;49.326;9.738;2022-12-07T05:58:17;27.70;;;15.83;;
9240;SDS011;53485;49.326;9.738;2022-12-07T06:00:50;31.13;;;16.43;;
9240;SDS011;53485;49.326;9.738;2022-12-07T06:03:17;27.83;;;15.17;;
9240;SDS011;53485;49.326;9.738;2022-12-07T06:05:44;27.40;;;14.77;;
9240;SDS011;53485;49.326;9.738;2022-12-07T06:08:12;30.77;;;16.53;;
9240;SDS011;53485;49.326;9.738;2022-12-07T06:10:39;28.50;;;15.60;;
9240;SDS011;53485;49.326;9.738;2022-12-07T06:13:06;27.37;;;15.87;;
9240;SDS011;53485;49.326;9.738;2022-12-07T06:15:35;25.80;;;13.97;;
9240;SDS011;53485;49.326;9.738;2022-12-07T06:18:03;26.37;;;15.60;;
9240;SDS011;53485;49.326;9.738;2022-12-07T06:20:30;24.70;;;14.20;;
9240;SDS011;53485;49.326;9.738;2022-12-07T06:22:58;22.67;;;14.50;;
9240;SDS011;53485;49.326;9.738;2022-12-07T06:25:25;23.70;;;14.60;;
9240;SDS011;53485;49.326;9.738;2022-12-07T06:27:53;24.43;;;14.70;;
9240;SDS011;53485;49.326;9.738;2022-12-07T06:30:20;26.20;;;15.47;;
9240;SDS011;53485;49.326;9.738;2022-12-07T06:32:47;23.07;;;14.17;;
9240;SDS011;53485;49.326;9.738;2022-12-07T06:35:15;25.57;;;14.83;;
9240;SDS011;53485;49.326;9.738;2022-12-07T06:37:42;21.87;;;13.83;;
9240;SDS011;53485;49.326;9.738;2022-12-07T06:40:09;26.53;;;15.20;;
9240;SDS011;53485;49.326;9.738;2022-12-07T06:42:37;23.77;;;14.73;;
9240;SDS011;53485;49.326;9.738;2022-12-07T06:45:05;25.20;;;13.67;;
9240;SDS011;53485;49.326;9.738;2022-12-07T06:47:32;25.83;;;14.43;;
9240;SDS011;53485;49.326;9.738;2022-12-07T06:50:00;21.43;;;13.60;;
9240;SDS011;53485;49.326;9.738;2022-12-07T06:52:27;23.97;;;13.67;;
9240;SDS011;53485;49.326;9.738;2022-12-07T06:54:54;24.03;;;13.33;;
9240;SDS011;53485;49.326;9.738;2022-12-07T06:57:22;22.07;;;13.50;;
9240;SDS011;53485;49.326;9.738;2022-12-07T06:59:49;21.87;;;12.03;;
9240;SDS011;53485;49.326;9.738;2022-12-07T07:02:17;23.33;;;13.33;;
9240;SDS011;53485;49.326;9.738;2022-12-07T07:04:44;24.03;;;13.67;;
9240;SDS011;53485;49.326;9.738;2022-12-07T07:07:11;20.07;;;12.80;;
9240;SDS011;53485;49.326;9.738;2022-12-07T07:09:39;19.83;;;13.30;;
9240;SDS011;53485;49.326;9.738;2022-12-07T07:12:06;21.93;;;13.57;;
9240;SDS011;53485;49.326;9.738;2022-12-07T07:14:33;23.03;;;13.40;;
9240;SDS011;53485;49.326;9.738;2022-12-07T07:17:00;24.03;;;13.60;;
9240;SDS011;53485;49.326;9.738;2022-12-07T07:19:28;23.67;;;13.50;;
9240;SDS011;53485;49.326;9.738;2022-12-07T07:21:55;22.90;;;12.77;;
9240;SDS011;53485;49.326;9.738;2022-12-07T07:24:23;22.67;;;14.67;;
9240;SDS011;53485;49.326;9.738;2022-12-07T07:26:50;25.50;;;14.67;;
9240;SDS011;53485;49.326;9.738;2022-12-07T07:29:17;21.57;;;13.60;;
9240;SDS011;53485;49.326;9.738;2022-12-07T07:31:45;21.23;;;13.70;;
9240;SDS011;53485;49.326;9.738;2022-12-07T07:34:12;24.47;;;13.20;;
9240;SDS011;53485;49.326;9.738;2022-12-07T07:36:40;24.47;;;13.80;;
9240;SDS011;53485;49.326;9.738;2022-12-07T07:39:07;23.10;;;13.70;;
9240;SDS011;53485;49.326;9.738;2022-12-07T07:41:34;23.83;;;14.00;;
9240;SDS011;53485;49.326;9.738;2022-12-07T07:44:02;20.07;;;12.30;;
9240;SDS011;53485;49.326;9.738;2022-12-07T07:46:29;23.77;;;13.57;;
9240;SDS011;53485;49.326;9.738;2022-12-07T07:48:56;24.53;;;12.50;;
9240;SDS011;53485;49.326;9.738;2022-12-07T07:51:24;24.57;;;14.17;;
9240;SDS011;53485;49.326;9.738;2022-12-07T07:53:51;24.43;;;13.20;;
9240;SDS011;53485;49.326;9.738;2022-12-07T07:56:18;20.43;;;13.00;;
9240;SDS011;53485;49.326;9.738;2022-12-07T07:58:46;22.50;;;12.23;;
9240;SDS011;53485;49.326;9.738;2022-12-07T08:01:13;23.50;;;13.07;;
9240;SDS011;53485;49.326;9.738;2022-12-07T08:03:40;22.43;;;13.50;;
9240;SDS011;53485;49.326;9.738;2022-12-07T08:06:07;21.57;;;11.63;;
9240;SDS011;53485;49.326;9.738;2022-12-07T08:08:35;20.73;;;11.97;;
9240;SDS011;53485;49.326;9.738;2022-12-07T08:11:05;22.17;;;12.97;;
9240;SDS011;53485;49.326;9.738;2022-12-07T08:13:31;24.90;;;12.60;;
9240;SDS011;53485;49.326;9.738;2022-12-07T08:15:58;36.00;;;13.97;;
9240;SDS011;53485;49.326;9.738;2022-12-07T08:18:25;22.13;;;11.67;;
9240;SDS011;53485;49.326;9.738;2022-12-07T08:20:58;20.60;;;11.90;;
9240;SDS011;53485;49.326;9.738;2022-12-07T08:23:19;22.30;;;12.70;;
9240;SDS011;53485;49.326;9.738;2022-12-07T08:25:47;22.20;;;13.37;;
9240;SDS011;53485;49.326;9.738;2022-12-07T08:28:15;21.60;;;13.00;;
9240;SDS011;53485;49.326;9.738;2022-12-07T08:30:41;21.67;;;12.37;;
9240;SDS011;53485;49.326;9.738;2022-12-07T08:33:09;22.43;;;12.50;;
9240;SDS011;53485;49.326;9.738;2022-12-07T08:35:35;21.67;;;11.77;;
9240;SDS011;53485;49.326;9.738;2022-12-07T08:38:02;20.00;;;12.67;;
9240;SDS011;53485;49.326;9.738;2022-12-07T08:40:28;19.83;;;12.03;;
9240;SDS011;53485;49.326;9.738;2022-12-07T08:42:55;22.00;;;12.13;;
9240;SDS011;53485;49.326;9.738;2022-12-07T08:45:22;20.20;;;11.40;;
9240;SDS011;53485;49.326;9.738;2022-12-07T08:47:53;18.77;;;12.17;;
9240;SDS011;53485;49.326;9.738;2022-12-07T08:50:19;20.70;;;11.83;;
9240;SDS011;53485;49.326;9.738;2022-12-07T08:52:48;20.97;;;11.43;;
9240;SDS011;53485;49.326;9.738;2022-12-07T08:55:14;23.77;;;12.37;;
9240;SDS011;53485;49.326;9.738;2022-12-07T08:57:41;20.73;;;11.67;;
9240;SDS011;53485;49.326;9.738;2022-12-07T09:00:08;21.90;;;12.07;;
9240;SDS011;53485;49.326;9.738;2022-12-07T09:02:36;21.70;;;12.77;;
9240;SDS011;53485;49.326;9.738;2022-12-07T09:05:04;23.33;;;13.13;;
9240;SDS011;53485;49.326;9.738;2022-12-07T09:07:32;25.50;;;12.53;;
9240;SDS011;53485;49.326;9.738;2022-12-07T09:09:59;26.03;;;14.17;;
9240;SDS011;53485;49.326;9.738;2022-12-07T09:12:26;23.27;;;13.70;;
9240;SDS011;53485;49.326;9.738;2022-12-07T09:14:53;23.57;;;13.27;;
9240;SDS011;53485;49.326;9.738;2022-12-07T09:17:21;24.77;;;13.50;;
9240;SDS011;53485;49.326;9.738;2022-12-07T09:19:48;27.20;;;14.70;;
9240;SDS011;53485;49.326;9.738;2022-12-07T09:22:15;27.23;;;15.47;;
9240;SDS011;53485;49.326;9.738;2022-12-07T09:24:42;25.10;;;14.77;;
9240;SDS011;53485;49.326;9.738;2022-12-07T09:27:10;25.30;;;15.67;;
9240;SDS011;53485;49.326;9.738;2022-12-07T09:29:37;26.40;;;15.93;;
9240;SDS011;53485;49.326;9.738;2022-12-07T09:32:04;23.10;;;14.53;;
9240;SDS011;53485;49.326;9.738;2022-12-07T09:34:32;27.47;;;14.83;;
9240;SDS011;53485;49.326;9.738;2022-12-07T09:37:00;25.20;;;14.83;;
9240;SDS011;53485;49.326;9.738;2022-12-07T09:39:26;24.43;;;14.73;;
9240;SDS011;53485;49.326;9.738;2022-12-07T09:41:53;28.43;;;15.63;;
9240;SDS011;53485;49.326;9.738;2022-12-07T09:44:23;29.80;;;15.77;;
9240;SDS011;53485;49.326;9.738;2022-12-07T09:46:49;25.17;;;14.93;;
9240;SDS011;53485;49.326;9.738;2022-12-07T09:49:17;27.47;;;16.20;;
9240;SDS011;53485;49.326;9.738;2022-12-07T09:51:43;27.43;;;14.63;;
9240;SDS011;53485;49.326;9.738;2022-12-07T09:54:12;23.73;;;13.47;;
9240;SDS011;53485;49.326;9.738;2022-12-07T09:56:38;22.57;;;13.87;;
9240;SDS011;53485;49.326;9.738;2022-12-07T09:59:05;22.90;;;13.30;;
9240;SDS011;53485;49.326;9.738;2022-12-07T10:01:32;25.00;;;15.17;;
9240;SDS011;53485;49.326;9.738;2022-12-07T10:04:01;24.20;;;14.30;;
9240;SDS011;53485;49.326;9.738;2022-12-07T10:06:41;24.83;;;14.73;;
9240;SDS011;53485;49.326;9.738;2022-12-07T10:09:12;22.97;;;12.93;;
9240;SDS011;53485;49.326;9.738;2022-12-07T10:14:28;20.97;;;13.10;;
9240;SDS011;53485;49.326;9.738;2022-12-07T10:16:53;21.83;;;13.33;;
9240;SDS011;53485;49.326;9.738;2022-12-07T10:19:24;21.70;;;13.17;;
9240;SDS011;53485;49.326;9.738;2022-12-07T10:24:34;25.13;;;14.97;;
9240;SDS011;53485;49.326;9.738;2022-12-07T10:27:01;23.83;;;13.63;;
9240;SDS011;53485;49.326;9.738;2022-12-07T10:29:30;24.17;;;13.33;;
9240;SDS011;53485;49.326;9.738;2022-12-07T10:31:57;25.40;;;14.37;;
9240;SDS011;53485;49.326;9.738;2022-12-07T10:34:25;24.13;;;13.50;;
9240;SDS011;53485;49.326;9.738;2022-12-07T10:36:51;28.07;;;14.07;;
9240;SDS011;53485;49.326;9.738;2022-12-07T10:39:18;27.47;;;13.93;;
9240;SDS011;53485;49.326;9.738;2022-12-07T10:44:21;25.73;;;14.13;;
9240;SDS011;53485;49.326;9.738;2022-12-07T10:49:38;24.43;;;14.33;;
9240;SDS011;53485;49.326;9.738;2022-12-07T10:52:10;25.07;;;14.47;;
9240;SDS011;53485;49.326;9.738;2022-12-07T10:55:00;25.20;;;14.20;;
9240;SDS011;53485;49.326;9.738;2022-12-07T10:57:40;26.63;;;14.13;;
9240;SDS011;53485;49.326;9.738;2022-12-07T11:00:22;24.10;;;14.10;;
9240;SDS011;53485;49.326;9.738;2022-12-07T11:05:32;25.70;;;13.63;;
9240;SDS011;53485;49.326;9.738;2022-12-07T11:10:47;25.20;;;14.73;;
9240;SDS011;53485;49.326;9.738;2022-12-07T11:13:26;27.97;;;14.97;;
9240;SDS011;53485;49.326;9.738;2022-12-07T11:16:01;26.63;;;14.20;;
9240;SDS011;53485;49.326;9.738;2022-12-07T11:18:29;26.17;;;14.37;;
9240;SDS011;53485;49.326;9.738;2022-12-07T11:21:03;24.53;;;14.43;;
9240;SDS011;53485;49.326;9.738;2022-12-07T11:23:45;25.73;;;14.60;;
9240;SDS011;53485;49.326;9.738;2022-12-07T11:26:23;27.07;;;15.03;;
9240;SDS011;53485;49.326;9.738;2022-12-07T11:28:57;29.60;;;15.50;;
9240;SDS011;53485;49.326;9.738;2022-12-07T11:31:26;30.27;;;15.53;;
9240;SDS011;53485;49.326;9.738;2022-12-07T11:33:53;28.80;;;15.43;;
9240;SDS011;53485;49.326;9.738;2022-12-07T11:39:00;27.90;;;14.90;;
9240;SDS011;53485;49.326;9.738;2022-12-07T11:41:28;32.53;;;15.67;;
9240;SDS011;53485;49.326;9.738;2022-12-07T11:43:56;27.30;;;15.80;;
9240;SDS011;53485;49.326;9.738;2022-12-07T11:46:23;28.97;;;15.97;;
9240;SDS011;53485;49.326;9.738;2022-12-07T11:48:52;27.73;;;15.80;;
9240;SDS011;53485;49.326;9.738;2022-12-07T11:51:18;28.60;;;16.20;;
9240;SDS011;53485;49.326;9.738;2022-12-07T11:53:53;28.53;;;15.73;;
9240;SDS011;53485;49.326;9.738;2022-12-07T11:56:22;30.93;;;16.77;;
9240;SDS011;53485;49.326;9.738;2022-12-07T11:58:55;28.23;;;16.47;;
9240;SDS011;53485;49.326;9.738;2022-12-07T12:01:41;26.83;;;15.67;;
9240;SDS011;53485;49.326;9.738;2022-12-07T12:04:19;27.00;;;15.57;;
9240;SDS011;53485;49.326;9.738;2022-12-07T12:07:02;28.97;;;16.20;;
9240;SDS011;53485;49.326;9.738;2022-12-07T12:09:34;27.57;;;16.87;;
9240;SDS011;53485;49.326;9.738;2022-12-07T12:12:08;28.63;;;16.40;;
9240;SDS011;53485;49.326;9.738;2022-12-07T12:14:42;30.37;;;16.73;;
9240;SDS011;53485;49.326;9.738;2022-12-07T12:17:27;27.93;;;16.93;;
9240;SDS011;53485;49.326;9.738;2022-12-07T12:20:04;30.10;;;16.80;;
9240;SDS011;53485;49.326;9.738;2022-12-07T12:22:39;27.80;;;15.43;;
9240;SDS011;53485;49.326;9.738;2022-12-07T12:25:18;31.23;;;16.50;;
9240;SDS011;53485;49.326;9.738;2022-12-07T12:27:57;33.53;;;17.50;;
9240;SDS011;53485;49.326;9.738;2022-12-07T12:33:02;31.33;;;16.80;;
9240;SDS011;53485;49.326;9.738;2022-12-07T12:35:31;28.77;;;16.87;;
9240;SDS011;53485;49.326;9.738;2022-12-07T12:38:20;29.57;;;17.10;;
9240;SDS011;53485;49.326;9.738;2022-12-07T12:43:39;28.57;;;17.27;;
9240;SDS011;53485;49.326;9.738;2022-12-07T12:45:34;30.50;;;17.27;;
9240;SDS011;53485;49.326;9.738;2022-12-07T12:48:02;28.60;;;15.07;;
9240;SDS011;53485;49.326;9.738;2022-12-07T12:50:36;27.97;;;15.73;;
9240;SDS011;53485;49.326;9.738;2022-12-07T12:56:18;23.77;;;14.13;;
9240;SDS011;53485;49.326;9.738;2022-12-07T12:58:29;25.43;;;15.13;;
9240;SDS011;53485;49.326;9.738;2022-12-07T13:03:34;29.10;;;18.03;;
9240;SDS011;53485;49.326;9.738;2022-12-07T13:08:45;26.03;;;14.87;;
9240;SDS011;53485;49.326;9.738;2022-12-07T13:11:17;27.53;;;16.53;;
9240;SDS011;53485;49.326;9.738;2022-12-07T13:13:43;25.43;;;14.23;;
9240;SDS011;53485;49.326;9.738;2022-12-07T13:19:26;27.27;;;14.50;;
9240;SDS011;53485;49.326;9.738;2022-12-07T13:24:13;25.53;;;14.93;;
9240;SDS011;53485;49.326;9.738;2022-12-07T13:26:42;23.07;;;14.30;;
9240;SDS011;53485;49.326;9.738;2022-12-07T13:29:14;22.27;;;14.10;;
9240;SDS011;53485;49.326;9.738;2022-12-07T13:31:46;22.13;;;13.50;;
9240;SDS011;53485;49.326;9.738;2022-12-07T13:36:51;25.17;;;14.20;;
9240;SDS011;53485;49.326;9.738;2022-12-07T13:39:20;26.13;;;14.23;;
9240;SDS011;53485;49.326;9.738;2022-12-07T13:41:49;24.03;;;13.60;;
9240;SDS011;53485;49.326;9.738;2022-12-07T13:44:13;21.97;;;13.10;;
9240;SDS011;53485;49.326;9.738;2022-12-07T13:46:57;22.33;;;13.60;;
9240;SDS011;53485;49.326;9.738;2022-12-07T13:49:28;19.70;;;13.10;;
9240;SDS011;53485;49.326;9.738;2022-12-07T13:51:54;25.07;;;13.90;;
9240;SDS011;53485;49.326;9.738;2022-12-07T13:54:20;25.87;;;14.27;;
9240;SDS011;53485;49.326;9.738;2022-12-07T13:56:47;23.47;;;13.50;;
9240;SDS011;53485;49.326;9.738;2022-12-07T13:59:15;23.80;;;13.63;;
9240;SDS011;53485;49.326;9.738;2022-12-07T14:01:42;21.83;;;12.90;;
9240;SDS011;53485;49.326;9.738;2022-12-07T14:06:47;23.73;;;14.50;;
9240;SDS011;53485;49.326;9.738;2022-12-07T14:09:17;23.80;;;14.33;;
9240;SDS011;53485;49.326;9.738;2022-12-07T14:11:42;27.43;;;15.00;;
9240;SDS011;53485;49.326;9.738;2022-12-07T14:14:11;26.00;;;14.00;;
9240;SDS011;53485;49.326;9.738;2022-12-07T14:16:37;27.50;;;15.57;;
9240;SDS011;53485;49.326;9.738;2022-12-07T14:19:04;26.67;;;13.70;;
9240;SDS011;53485;49.326;9.738;2022-12-07T14:21:31;24.83;;;15.00;;
9240;SDS011;53485;49.326;9.738;2022-12-07T14:26:35;23.20;;;14.30;;
9240;SDS011;53485;49.326;9.738;2022-12-07T14:31:40;23.83;;;13.90;;
9240;SDS011;53485;49.326;9.738;2022-12-07T14:34:11;22.00;;;14.13;;
9240;SDS011;53485;49.326;9.738;2022-12-07T14:36:34;24.33;;;14.20;;
9240;SDS011;53485;49.326;9.738;2022-12-07T14:39:02;24.97;;;14.30;;
9240;SDS011;53485;49.326;9.738;2022-12-07T14:41:29;23.83;;;13.73;;
9240;SDS011;53485;49.326;9.738;2022-12-07T14:44:04;23.23;;;13.53;;
9240;SDS011;53485;49.326;9.738;2022-12-07T14:46:29;20.37;;;12.07;;
9240;SDS011;53485;49.326;9.738;2022-12-07T14:48:56;23.23;;;13.03;;
9240;SDS011;53485;49.326;9.738;2022-12-07T14:51:23;28.50;;;17.10;;
9240;SDS011;53485;49.326;9.738;2022-12-07T14:53:51;25.90;;;15.73;;
9240;SDS011;53485;49.326;9.738;2022-12-07T14:56:18;28.17;;;14.37;;
9240;SDS011;53485;49.326;9.738;2022-12-07T14:58:45;21.57;;;13.37;;
9240;SDS011;53485;49.326;9.738;2022-12-07T15:01:12;25.63;;;14.00;;
9240;SDS011;53485;49.326;9.738;2022-12-07T15:03:40;20.23;;;13.70;;
9240;SDS011;53485;49.326;9.738;2022-12-07T15:06:10;24.13;;;13.33;;
9240;SDS011;53485;49.326;9.738;2022-12-07T15:08:35;21.10;;;13.53;;
9240;SDS011;53485;49.326;9.738;2022-12-07T15:11:02;23.93;;;14.00;;
9240;SDS011;53485;49.326;9.738;2022-12-07T15:13:29;24.27;;;14.70;;
9240;SDS011;53485;49.326;9.738;2022-12-07T15:16:02;23.60;;;13.60;;
9240;SDS011;53485;49.326;9.738;2022-12-07T15:18:30;21.87;;;13.00;;
9240;SDS011;53485;49.326;9.738;2022-12-07T15:20:57;26.80;;;14.00;;
9240;SDS011;53485;49.326;9.738;2022-12-07T15:23:24;23.33;;;13.43;;
9240;SDS011;53485;49.326;9.738;2022-12-07T15:25:52;28.63;;;14.07;;
9240;SDS011;53485;49.326;9.738;2022-12-07T15:28:19;25.17;;;14.50;;
9240;SDS011;53485;49.326;9.738;2022-12-07T15:30:47;24.70;;;14.10;;
9240;SDS011;53485;49.326;9.738;2022-12-07T15:33:14;22.57;;;14.17;;
9240;SDS011;53485;49.326;9.738;2022-12-07T15:35:43;25.70;;;14.20;;
9240;SDS011;53485;49.326;9.738;2022-12-07T15:38:09;26.13;;;15.07;;